Time;durP1;ratioP1;P1;durP2;ratioP2;P2;SDS_P1;SDS_P2;PMS_P1;PMS_P2;Temp;Humidity;BMP_temperature;BMP_pressure;BME280_temperature;BME280_humidity;BME280_pressure;Samples;Min_cycle;Max_cycle;Signal;HPM_P1;HPM_P2
2022/12/04 00:01:19;;;;;;;48.28;28.00;;;1.50;99.90;;;;;;5073791;28;20044;-72
2022/12/04 00:03:45;;;;;;;48.75;28.90;;;1.60;99.90;;;;;;5072852;28;20118;-72
2022/12/04 00:06:17;;;;;;;48.85;28.92;;;1.50;99.90;;;;;;5073513;28;20076;-72
2022/12/04 00:08:43;;;;;;;44.92;27.80;;;1.60;99.90;;;;;;5073447;28;20047;-72
2022/12/04 00:11:12;;;;;;;45.90;28.30;;;1.60;99.90;;;;;;5073568;28;20067;-72
2022/12/04 00:13:38;;;;;;;50.38;28.83;;;1.60;99.90;;;;;;5073092;28;20127;-72
2022/12/04 00:16:10;;;;;;;47.92;28.95;;;1.60;99.90;;;;;;5056323;28;20086;-72
2022/12/04 00:18:36;;;;;;;49.35;28.73;;;1.60;99.90;;;;;;5073047;28;20489;-72
2022/12/04 00:21:07;;;;;;;48.72;28.67;;;1.60;99.90;;;;;;5073266;28;20036;-72
2022/12/04 00:23:34;;;;;;;52.20;28.13;;;1.60;99.90;;;;;;5073231;28;20044;-72
2022/12/04 00:26:06;;;;;;;50.95;28.88;;;1.60;99.90;;;;;;5072938;28;20080;-72
2022/12/04 00:28:32;;;;;;;49.22;30.50;;;1.60;99.90;;;;;;5072881;28;20063;-72
2022/12/04 00:30:57;;;;;;;51.35;30.38;;;1.50;99.90;;;;;;5072857;28;20045;-72
2022/12/04 00:33:23;;;;;;;50.42;28.52;;;1.60;99.90;;;;;;5072763;28;20052;-72
2022/12/04 00:35:59;;;;;;;49.70;28.52;;;1.60;99.90;;;;;;5072845;28;20086;-72
2022/12/04 00:38:25;;;;;;;52.90;29.45;;;1.60;99.90;;;;;;5073037;28;20393;-72
2022/12/04 00:40:51;;;;;;;46.65;27.58;;;1.60;99.90;;;;;;5072689;28;20512;-72
2022/12/04 00:43:17;;;;;;;49.22;28.83;;;1.60;99.90;;;;;;5072617;28;20511;-72
2022/12/04 00:45:43;;;;;;;48.63;28.02;;;1.60;99.90;;;;;;5036630;28;1031756;-72
2022/12/04 00:48:09;;;;;;;48.63;29.35;;;1.60;99.90;;;;;;5073838;28;20056;-72
2022/12/04 00:50:35;;;;;;;47.17;28.13;;;1.60;99.90;;;;;;5073556;28;20515;-72
2022/12/04 00:53:00;;;;;;;49.35;28.23;;;1.60;99.90;;;;;;5073391;28;20481;-72
2022/12/04 00:55:26;;;;;;;46.67;27.40;;;1.50;99.90;;;;;;5073389;28;20557;-72
2022/12/04 00:57:51;;;;;;;46.95;28.58;;;1.50;99.90;;;;;;5057008;28;20033;-72
2022/12/04 01:00:17;;;;;;;46.15;28.58;;;1.60;99.90;;;;;;5073372;28;20040;-72
2022/12/04 01:02:44;;;;;;;47.85;27.52;;;1.60;99.90;;;;;;5073514;28;20044;-72
2022/12/04 01:05:10;;;;;;;47.10;27.33;;;1.60;99.90;;;;;;5073180;28;20037;-72
2022/12/04 01:07:35;;;;;;;50.40;28.75;;;1.60;99.90;;;;;;5073447;28;20036;-72
2022/12/04 01:10:02;;;;;;;48.60;28.98;;;1.50;99.90;;;;;;5073159;28;20496;-72
2022/12/04 01:12:27;;;;;;;46.83;27.48;;;1.50;99.90;;;;;;5073336;28;20036;-72
2022/12/04 01:14:53;;;;;;;48.70;28.52;;;1.50;99.90;;;;;;5072727;28;20065;-72
2022/12/04 01:17:19;;;;;;;45.70;28.77;;;1.50;99.90;;;;;;5072611;28;20028;-73
2022/12/04 01:19:44;;;;;;;47.90;27.33;;;1.50;99.90;;;;;;5073254;28;20075;-73
2022/12/04 01:22:10;;;;;;;48.38;28.52;;;1.50;99.90;;;;;;5072886;28;20517;-73
2022/12/04 01:24:35;;;;;;;49.53;29.23;;;1.50;99.90;;;;;;5072785;28;20036;-72
2022/12/04 01:27:01;;;;;;;47.67;28.23;;;1.50;99.90;;;;;;5072803;28;20195;-72
2022/12/04 01:29:26;;;;;;;50.15;29.17;;;1.50;99.90;;;;;;5072772;28;20041;-72
2022/12/04 01:31:52;;;;;;;48.80;27.73;;;1.50;99.90;;;;;;5072689;28;20036;-72
2022/12/04 01:34:18;;;;;;;51.60;29.73;;;1.50;99.90;;;;;;5072595;28;20036;-72
2022/12/04 01:36:43;;;;;;;45.35;28.25;;;1.50;99.90;;;;;;5072581;28;20129;-72
2022/12/04 01:39:09;;;;;;;48.65;29.33;;;1.50;99.90;;;;;;5072609;28;20563;-72
2022/12/04 01:41:34;;;;;;;48.65;28.60;;;1.50;99.90;;;;;;5072763;28;20074;-72
2022/12/04 01:44:21;;;;;;;50.47;30.23;;;1.50;99.90;;;;;;5072420;28;20386;-72
2022/12/04 01:46:52;;;;;;;50.72;30.13;;;1.50;99.90;;;;;;5072317;28;20044;-72
2022/12/04 01:49:35;;;;;;;46.95;28.23;;;1.50;99.90;;;;;;5055691;28;20044;-73
2022/12/04 01:52:22;;;;;;;48.03;29.15;;;1.50;99.90;;;;;;5072428;28;20041;-73
2022/12/04 01:54:57;;;;;;;49.55;28.83;;;1.50;99.90;;;;;;5072179;28;20047;-73
2022/12/04 01:57:27;;;;;;;46.92;28.52;;;1.50;99.90;;;;;;5072560;28;20123;-73
2022/12/04 01:59:57;;;;;;;47.08;28.27;;;1.50;99.90;;;;;;5072233;28;20041;-73
2022/12/04 02:02:28;;;;;;;50.70;30.92;;;1.50;99.90;;;;;;5072189;28;20123;-73
2022/12/04 02:04:55;;;;;;;46.13;29.10;;;1.50;99.90;;;;;;5072145;28;20037;-73
2022/12/04 02:07:21;;;;;;;50.75;30.58;;;1.50;99.90;;;;;;5073637;28;20040;-73
2022/12/04 02:09:52;;;;;;;48.30;29.58;;;1.50;99.90;;;;;;5072061;28;20033;-73
2022/12/04 02:12:31;;;;;;;46.33;28.20;;;1.50;99.90;;;;;;5072093;28;20476;-72
2022/12/04 02:15:23;;;;;;;47.70;29.48;;;1.50;99.90;;;;;;5072159;28;20110;-72
2022/12/04 02:18:00;;;;;;;51.40;30.08;;;1.50;99.90;;;;;;5073145;28;20032;-72
2022/12/04 02:20:50;;;;;;;53.80;29.95;;;1.50;99.90;;;;;;5055299;28;20041;-72
2022/12/04 02:23:46;;;;;;;47.10;29.38;;;1.50;99.90;;;;;;5071878;28;20409;-72
2022/12/04 02:26:14;;;;;;;48.15;29.15;;;1.50;99.90;;;;;;5071923;28;20431;-72
2022/12/04 02:29:17;;;;;;;50.92;31.25;;;1.50;99.90;;;;;;5072558;28;20044;-72
2022/12/04 02:32:01;;;;;;;52.45;30.38;;;1.50;99.90;;;;;;5071839;28;20051;-72
2022/12/04 02:34:57;;;;;;;49.50;30.58;;;1.50;99.90;;;;;;5072074;28;20098;-72
2022/12/04 02:37:33;;;;;;;47.25;30.27;;;1.50;99.90;;;;;;5071826;28;20051;-72
2022/12/04 02:40:11;;;;;;;50.72;29.42;;;1.50;99.90;;;;;;5072074;28;20117;-72
2022/12/04 02:42:43;;;;;;;52.58;31.67;;;1.50;99.90;;;;;;5071786;28;20062;-72
2022/12/04 02:45:13;;;;;;;50.90;31.08;;;1.50;99.90;;;;;;5054898;28;20459;-72
2022/12/04 02:47:41;;;;;;;55.40;31.42;;;1.50;99.90;;;;;;5071732;28;20562;-72
2022/12/04 02:50:15;;;;;;;52.20;31.63;;;1.50;99.90;;;;;;5071708;28;20040;-72
2022/12/04 02:52:53;;;;;;;51.90;31.80;;;1.50;99.90;;;;;;5071970;28;20087;-72
2022/12/04 02:55:26;;;;;;;46.50;30.42;;;1.50;99.90;;;;;;5071772;28;20041;-72
2022/12/04 02:57:56;;;;;;;54.30;31.50;;;1.50;99.90;;;;;;5071681;28;20492;-72
2022/12/04 03:00:22;;;;;;;49.15;30.73;;;1.50;99.90;;;;;;5071907;28;20040;-72
2022/12/04 03:02:55;;;;;;;54.70;32.15;;;1.50;99.90;;;;;;5054809;28;20404;-72
2022/12/04 03:05:27;;;;;;;48.90;31.52;;;1.50;99.90;;;;;;5071582;28;20040;-72
2022/12/04 03:07:57;;;;;;;52.45;30.88;;;1.40;99.90;;;;;;5071532;28;20063;-72
2022/12/04 03:10:33;;;;;;;49.30;31.67;;;1.40;99.90;;;;;;5071558;28;20044;-72
2022/12/04 03:13:09;;;;;;;48.30;30.77;;;1.40;99.90;;;;;;5071410;28;20044;-72
2022/12/04 03:16:00;;;;;;;50.22;31.85;;;1.40;99.90;;;;;;5054952;28;20040;-72
2022/12/04 03:18:52;;;;;;;50.45;31.52;;;1.40;99.90;;;;;;5071434;28;20036;-72
2022/12/04 03:21:21;;;;;;;51.92;31.17;;;1.40;99.90;;;;;;5014081;28;20095;-72
2022/12/04 03:24:03;;;;;;;52.55;32.10;;;1.40;99.90;;;;;;5014266;28;20041;-72
2022/12/04 03:27:03;;;;;;;48.67;30.48;;;1.40;99.90;;;;;;5014511;28;20057;-72
2022/12/04 03:29:47;;;;;;;53.28;33.08;;;1.40;99.90;;;;;;4997977;28;20065;-72
2022/12/04 03:32:20;;;;;;;54.35;32.67;;;1.40;99.90;;;;;;5014385;28;20114;-72
2022/12/04 03:34:57;;;;;;;;;;;1.30;99.90;;;;;;5014557;28;20049;-72
2022/12/04 03:38:08;;;;;;;51.20;31.83;;;1.30;99.90;;;;;;5014273;28;19916;-72
2022/12/04 03:40:41;;;;;;;54.03;33.72;;;1.30;99.90;;;;;;4984968;28;20053;-72
2022/12/04 03:43:25;;;;;;;51.83;33.13;;;1.30;99.90;;;;;;5017719;28;20045;-72
2022/12/04 03:46:19;;;;;;;;;;;1.30;99.90;;;;;;5017891;28;20096;-72
2022/12/04 03:49:11;;;;;;;54.67;32.85;;;1.30;99.90;;;;;;4996692;28;19933;-72
2022/12/04 03:51:47;;;;;;;51.78;32.83;;;1.30;99.90;;;;;;5001508;28;20068;-72
2022/12/04 03:54:18;;;;;;;52.88;33.90;;;1.30;99.90;;;;;;5017262;28;20490;-72
2022/12/04 03:56:49;;;;;;;53.90;33.97;;;1.30;99.90;;;;;;5017223;28;20053;-72
2022/12/04 03:59:23;;;;;;;54.92;33.88;;;1.30;99.90;;;;;;5073704;28;20051;-72
2022/12/04 04:01:50;;;;;;;57.45;34.95;;;1.30;99.90;;;;;;5074771;28;20040;-72
2022/12/04 04:04:21;;;;;;;56.50;35.42;;;1.30;99.90;;;;;;5074685;28;20028;-72
2022/12/04 04:06:56;;;;;;;58.42;35.80;;;1.30;99.90;;;;;;5074701;28;20516;-72
2022/12/04 04:09:25;;;;;;;56.05;34.80;;;1.30;99.90;;;;;;5074429;28;20048;-72
2022/12/04 04:12:07;;;;;;;57.33;34.90;;;1.30;99.90;;;;;;5074301;28;20413;-72
2022/12/04 04:25:56;;;;;;;52.40;33.10;;;1.20;99.90;;;;;;5074355;28;19979;-72
2022/12/04 04:28:39;;;;;;;56.90;35.70;;;1.20;99.90;;;;;;5074318;28;20082;-73
2022/12/04 04:31:15;;;;;;;56.50;33.92;;;1.20;99.90;;;;;;5074076;28;20043;-73
2022/12/04 04:34:10;;;;;;;57.30;34.65;;;1.20;99.90;;;;;;5074150;28;20033;-73
2022/12/04 04:36:50;;;;;;;54.03;33.90;;;1.20;99.90;;;;;;5065598;28;20048;-73
2022/12/04 04:39:35;;;;;;;61.38;35.97;;;1.20;99.90;;;;;;5073857;28;20037;-73
2022/12/04 04:42:16;;;;;;;56.42;35.42;;;1.10;99.90;;;;;;5074069;28;20040;-73
2022/12/04 04:44:56;;;;;;;56.22;34.25;;;1.10;99.90;;;;;;5073667;28;20440;-73
2022/12/04 04:47:37;;;;;;;55.10;34.88;;;1.10;99.90;;;;;;5073900;28;20047;-73
2022/12/04 04:50:05;;;;;;;56.85;35.22;;;1.10;99.90;;;;;;5073249;28;20089;-73
2022/12/04 04:52:33;;;;;;;56.78;35.13;;;1.10;99.90;;;;;;5073086;28;20048;-73
2022/12/04 04:55:00;;;;;;;59.58;36.45;;;1.10;99.90;;;;;;5073359;28;20040;-73
2022/12/04 04:57:28;;;;;;;55.90;34.47;;;1.10;99.90;;;;;;5073484;28;20555;-73
2022/12/04 04:59:53;;;;;;;55.72;34.53;;;1.10;99.90;;;;;;5073629;28;20045;-73
2022/12/04 05:02:19;;;;;;;55.85;33.40;;;1.10;99.90;;;;;;5073356;28;20040;-73
2022/12/04 05:04:44;;;;;;;58.50;35.35;;;1.10;99.90;;;;;;5073244;28;20074;-73
2022/12/04 05:07:10;;;;;;;55.05;33.30;;;1.10;99.90;;;;;;5073267;28;20040;-73
2022/12/04 05:09:35;;;;;;;52.92;32.38;;;1.10;99.90;;;;;;5073175;28;20119;-73
2022/12/04 05:12:01;;;;;;;57.88;34.35;;;1.10;99.90;;;;;;5073395;28;20048;-73
2022/12/04 05:14:27;;;;;;;56.95;35.03;;;1.10;99.90;;;;;;5073044;28;20119;-73
2022/12/04 05:16:52;;;;;;;54.72;32.95;;;1.10;99.90;;;;;;5072920;28;20094;-73
2022/12/04 05:22:02;;;;;;;50.60;33.58;;;1.10;99.90;;;;;;5073241;28;20080;-73
2022/12/04 05:24:28;;;;;;;53.92;34.08;;;1.10;99.90;;;;;;5073113;28;20446;-73
2022/12/04 05:26:54;;;;;;;56.28;34.97;;;1.10;99.90;;;;;;5073124;28;20476;-73
2022/12/04 05:29:19;;;;;;;54.35;32.97;;;1.00;99.90;;;;;;5073082;28;20083;-73
2022/12/04 05:31:45;;;;;;;55.08;34.28;;;1.10;99.90;;;;;;5072763;28;20501;-73
2022/12/04 05:34:10;;;;;;;55.55;33.05;;;1.10;99.90;;;;;;5072610;28;20041;-73
2022/12/04 05:36:36;;;;;;;58.08;34.65;;;1.10;99.90;;;;;;5072584;28;20072;-73
2022/12/04 05:39:01;;;;;;;54.53;33.35;;;1.10;99.90;;;;;;5072639;28;20044;-72
2022/12/04 05:41:27;;;;;;;55.55;33.53;;;1.10;99.90;;;;;;5072558;28;20033;-72
2022/12/04 05:43:52;;;;;;;54.53;34.03;;;1.10;99.90;;;;;;5056070;28;20123;-72
2022/12/04 05:46:18;;;;;;;51.88;32.65;;;1.10;99.90;;;;;;5072340;28;20514;-72
2022/12/04 05:48:44;;;;;;;52.28;32.83;;;1.10;99.90;;;;;;5056092;28;20079;-72
2022/12/04 05:51:10;;;;;;;56.13;33.50;;;1.10;99.90;;;;;;5072426;28;20524;-72
2022/12/04 05:53:36;;;;;;;52.38;32.28;;;1.10;99.90;;;;;;5072262;28;20044;-72
2022/12/04 05:56:03;;;;;;;51.72;32.97;;;1.10;99.90;;;;;;5055575;28;20072;-72
2022/12/04 05:58:29;;;;;;;54.45;33.33;;;1.10;99.90;;;;;;5072504;28;20041;-72
2022/12/04 06:00:55;;;;;;;52.55;31.88;;;1.10;99.90;;;;;;5072470;28;20501;-72
2022/12/04 06:03:21;;;;;;;54.03;33.03;;;1.10;99.90;;;;;;5072012;28;20040;-72
2022/12/04 06:05:47;;;;;;;54.53;33.05;;;1.10;99.90;;;;;;5072409;28;20087;-72
2022/12/04 06:08:12;;;;;;;50.17;32.22;;;1.10;99.90;;;;;;5072150;28;20536;-72
2022/12/04 06:10:38;;;;;;;52.83;31.80;;;1.10;99.90;;;;;;5072091;28;20051;-72
2022/12/04 06:13:05;;;;;;;55.90;33.08;;;1.10;99.90;;;;;;5071982;28;20048;-72
2022/12/04 06:15:30;;;;;;;50.42;32.03;;;1.20;99.90;;;;;;5071959;28;20516;-73
2022/12/04 06:17:56;;;;;;;49.80;30.67;;;1.20;99.90;;;;;;5072061;28;20044;-73
2022/12/04 06:20:21;;;;;;;51.40;31.75;;;1.20;99.90;;;;;;5072013;28;20055;-73
2022/12/04 06:22:47;;;;;;;50.60;32.03;;;1.10;99.90;;;;;;5072023;28;20036;-73
2022/12/04 06:25:13;;;;;;;50.78;29.88;;;1.10;99.90;;;;;;5055197;28;20036;-72
2022/12/04 06:27:38;;;;;;;50.97;32.33;;;1.10;99.90;;;;;;5055211;28;20044;-72
2022/12/04 06:30:04;;;;;;;49.05;31.02;;;1.20;99.90;;;;;;5071918;28;20085;-72
2022/12/04 06:32:30;;;;;;;50.92;31.67;;;1.20;99.90;;;;;;5073340;28;20115;-72
2022/12/04 06:34:55;;;;;;;49.58;31.50;;;1.10;99.90;;;;;;5071722;28;20576;-72
2022/12/04 06:37:23;;;;;;;54.58;32.17;;;1.20;99.90;;;;;;5071848;28;20044;-72
2022/12/04 06:39:49;;;;;;;55.47;34.00;;;1.20;99.90;;;;;;5071773;28;20546;-72
2022/12/04 06:42:15;;;;;;;48.42;30.92;;;1.20;99.90;;;;;;5071760;28;20048;-72
2022/12/04 06:44:40;;;;;;;49.50;30.25;;;1.20;99.90;;;;;;5071708;28;20029;-72
2022/12/04 06:47:07;;;;;;;51.95;31.73;;;1.20;99.90;;;;;;5071621;28;20095;-73
2022/12/04 06:49:33;;;;;;;51.67;31.63;;;1.20;99.90;;;;;;5072166;28;20055;-73
2022/12/04 06:51:58;;;;;;;50.55;30.98;;;1.20;99.90;;;;;;5071943;28;20044;-73
2022/12/04 06:54:24;;;;;;;52.65;31.83;;;1.20;99.90;;;;;;5071583;28;20453;-73
2022/12/04 06:56:50;;;;;;;49.92;30.88;;;1.20;99.90;;;;;;5071568;28;20044;-73
2022/12/04 06:59:16;;;;;;;56.17;32.75;;;1.20;99.90;;;;;;5071604;28;20028;-73
2022/12/04 07:01:41;;;;;;;53.75;32.65;;;1.20;99.90;;;;;;5071568;28;20036;-73
2022/12/04 07:04:07;;;;;;;55.13;32.15;;;1.20;99.90;;;;;;5071487;28;20036;-73
2022/12/04 07:06:35;;;;;;;54.33;32.65;;;1.20;99.90;;;;;;5071535;28;20036;-73
2022/12/04 07:09:05;;;;;;;53.15;32.47;;;1.20;99.90;;;;;;5071759;28;20075;-73
2022/12/04 07:11:31;;;;;;;53.38;32.42;;;1.10;99.90;;;;;;5072039;28;20040;-73
2022/12/04 07:13:56;;;;;;;52.88;33.28;;;1.10;99.90;;;;;;5072121;28;20041;-73
2022/12/04 07:16:23;;;;;;;57.83;32.60;;;1.10;99.90;;;;;;5058646;28;20086;-73
2022/12/04 07:18:50;;;;;;;53.33;32.58;;;1.10;99.90;;;;;;5075323;28;20040;-73
2022/12/04 07:21:17;;;;;;;57.65;33.20;;;1.10;99.90;;;;;;5075503;28;20036;-73
2022/12/04 07:23:44;;;;;;;53.67;33.53;;;1.10;99.90;;;;;;5058781;28;20485;-73
2022/12/04 07:26:12;;;;;;;55.72;33.72;;;1.10;99.90;;;;;;5075163;28;20044;-73
2022/12/04 07:28:39;;;;;;;54.83;33.78;;;1.10;99.90;;;;;;5058704;28;20037;-73
2022/12/04 07:31:05;;;;;;;56.42;31.95;;;1.10;99.90;;;;;;5058410;28;20066;-73
2022/12/04 07:33:31;;;;;;;52.05;32.33;;;1.10;99.90;;;;;;5074851;28;20047;-73
2022/12/04 07:35:58;;;;;;;58.80;34.67;;;1.10;99.90;;;;;;5074903;28;20111;-73
2022/12/04 07:38:25;;;;;;;55.10;34.35;;;1.10;99.90;;;;;;5074939;28;20148;-73
2022/12/04 07:40:51;;;;;;;58.15;34.28;;;1.10;99.90;;;;;;5075147;28;20056;-73
2022/12/04 07:43:16;;;;;;;58.60;33.88;;;1.10;99.90;;;;;;5074736;28;20497;-73
2022/12/04 07:45:42;;;;;;;58.22;34.20;;;1.10;99.90;;;;;;5074931;28;20067;-73
2022/12/04 07:48:08;;;;;;;57.28;34.47;;;1.10;99.90;;;;;;5074758;28;20523;-73
2022/12/04 07:50:33;;;;;;;57.85;34.00;;;1.10;99.90;;;;;;5074954;28;20044;-73
2022/12/04 07:52:59;;;;;;;56.85;33.45;;;1.10;99.90;;;;;;5074568;28;20132;-73
2022/12/04 07:55:24;;;;;;;56.40;33.67;;;1.10;99.90;;;;;;5074548;28;20044;-73
2022/12/04 07:57:50;;;;;;;58.20;33.40;;;1.10;99.90;;;;;;5074815;28;20032;-73
2022/12/04 08:00:16;;;;;;;55.67;33.30;;;1.10;99.90;;;;;;5074554;28;20501;-73
2022/12/04 08:02:41;;;;;;;57.13;34.15;;;1.10;99.90;;;;;;5074488;28;20044;-73
2022/12/04 08:05:07;;;;;;;60.72;35.20;;;1.10;99.90;;;;;;5074364;28;20037;-73
2022/12/04 08:07:33;;;;;;;58.70;33.97;;;1.20;99.90;;;;;;5074443;28;20033;-73
2022/12/04 08:09:58;;;;;;;58.75;35.17;;;1.20;99.90;;;;;;5074397;28;20040;-73
2022/12/04 08:12:24;;;;;;;58.80;34.70;;;1.20;99.90;;;;;;5074349;28;20070;-73
2022/12/04 08:14:49;;;;;;;60.70;35.75;;;1.20;99.90;;;;;;5074252;28;20083;-73
2022/12/04 08:17:15;;;;;;;59.05;34.35;;;1.20;99.90;;;;;;5057561;28;20041;-73
2022/12/04 08:19:41;;;;;;;57.80;33.72;;;1.20;99.90;;;;;;5074217;28;20386;-73
2022/12/04 08:22:06;;;;;;;56.20;34.30;;;1.20;99.90;;;;;;5074178;28;20033;-73
2022/12/04 08:24:32;;;;;;;58.05;34.88;;;1.20;99.90;;;;;;5073640;28;20044;-73
2022/12/04 08:26:57;;;;;;;61.15;34.35;;;1.20;99.90;;;;;;5074083;28;20036;-73
2022/12/04 08:29:23;;;;;;;58.70;34.45;;;1.10;99.90;;;;;;5074075;28;20443;-73
2022/12/04 08:31:49;;;;;;;56.83;34.42;;;1.20;99.90;;;;;;5073967;28;20043;-73
2022/12/04 08:34:15;;;;;;;58.92;34.47;;;1.20;99.90;;;;;;5073887;28;20421;-73
2022/12/04 08:36:40;;;;;;;54.38;33.15;;;1.20;99.90;;;;;;5073886;28;20115;-73
2022/12/04 08:39:06;;;;;;;57.92;32.88;;;1.20;99.90;;;;;;5073817;28;20033;-73
2022/12/04 08:41:32;;;;;;;58.97;34.30;;;1.20;99.90;;;;;;5073782;28;20036;-74
2022/12/04 08:43:58;;;;;;;60.28;34.58;;;1.20;99.90;;;;;;5073662;28;20029;-73
2022/12/04 08:46:25;;;;;;;59.75;34.75;;;1.20;99.90;;;;;;5073581;28;20055;-73
2022/12/04 08:48:51;;;;;;;56.90;33.58;;;1.20;99.90;;;;;;5073905;28;20045;-73
2022/12/04 08:51:22;;;;;;;57.33;33.65;;;1.30;99.90;;;;;;5073839;28;20093;-73
2022/12/04 08:54:02;;;;;;;55.35;32.88;;;1.30;99.90;;;;;;5073783;28;20040;-73
2022/12/04 08:56:29;;;;;;;64.13;35.60;;;1.30;99.90;;;;;;5073571;28;20505;-73
2022/12/04 08:58:56;;;;;;;57.72;34.38;;;1.20;99.90;;;;;;5073454;28;20047;-73
2022/12/04 09:01:22;;;;;;;56.88;34.45;;;1.30;99.90;;;;;;5073655;28;20056;-73
2022/12/04 09:03:48;;;;;;;59.08;34.55;;;1.30;99.90;;;;;;5073278;28;20489;-76
2022/12/04 09:06:15;;;;;;;58.65;35.78;;;1.30;99.90;;;;;;5073520;28;20051;-76
2022/12/04 09:08:41;;;;;;;58.65;34.38;;;1.30;99.90;;;;;;5073292;28;20513;-76
2022/12/04 09:11:09;;;;;;;56.40;33.13;;;1.30;99.90;;;;;;5056503;28;20234;-75
2022/12/04 09:13:34;;;;;;;57.83;33.67;;;1.30;99.90;;;;;;5073145;28;20497;-76
2022/12/04 09:16:03;;;;;;;61.95;34.58;;;1.40;99.90;;;;;;5073025;28;20040;-76
2022/12/04 09:18:29;;;;;;;59.70;35.03;;;1.40;99.90;;;;;;5073246;28;20036;-76
2022/12/04 09:21:00;;;;;;;59.97;33.67;;;1.40;99.90;;;;;;5073067;28;20055;-76
2022/12/04 09:23:26;;;;;;;58.85;34.42;;;1.40;99.90;;;;;;5056304;28;20123;-76
2022/12/04 09:25:52;;;;;;;60.78;34.92;;;1.40;99.90;;;;;;5072837;28;20086;-76
2022/12/04 09:28:18;;;;;;;56.72;32.78;;;1.40;99.90;;;;;;5072876;28;20089;-76
2022/12/04 09:30:44;;;;;;;56.75;32.58;;;1.40;99.90;;;;;;5072813;28;20039;-76
2022/12/04 09:33:10;;;;;;;54.28;33.25;;;1.40;99.90;;;;;;5072675;28;20048;-76
2022/12/04 09:35:38;;;;;;;56.05;33.25;;;1.50;99.90;;;;;;5072596;28;20090;-76
2022/12/04 09:38:03;;;;;;;56.45;33.63;;;1.50;99.90;;;;;;5072057;28;20124;-76
2022/12/04 09:40:39;;;;;;;51.90;30.88;;;1.50;99.90;;;;;;5055991;28;20078;-76
2022/12/04 09:43:33;;;;;;;50.95;32.45;;;1.50;99.90;;;;;;5072654;28;20040;-76
2022/12/04 09:46:06;;;;;;;62.17;34.53;;;1.50;99.90;;;;;;5072684;28;20052;-77
2022/12/04 09:48:41;;;;;;;54.78;33.28;;;1.50;99.90;;;;;;5055852;28;20044;-77
2022/12/04 09:51:17;;;;;;;59.83;35.15;;;1.50;99.90;;;;;;5056077;28;20132;-77
2022/12/04 09:53:53;;;;;;;53.55;32.38;;;1.50;99.90;;;;;;5055677;28;20568;-77
2022/12/04 09:56:22;;;;;;;54.03;31.25;;;1.60;99.90;;;;;;5072462;28;20045;-77
2022/12/04 09:59:21;;;;;;;52.85;32.00;;;1.60;99.90;;;;;;5072285;28;20512;-77
2022/12/04 10:01:50;;;;;;;52.00;30.83;;;1.60;99.90;;;;;;5059752;28;20416;-77
2022/12/04 10:04:17;;;;;;;52.50;31.48;;;1.60;99.90;;;;;;5072152;28;20115;-77
2022/12/04 10:07:06;;;;;;;53.90;32.50;;;1.70;99.90;;;;;;5072193;28;20086;-77
2022/12/04 10:09:31;;;;;;;48.47;30.55;;;1.70;99.90;;;;;;5055840;28;20115;-77
2022/12/04 10:12:17;;;;;;;51.55;30.80;;;1.70;99.90;;;;;;5072451;28;20517;-77
2022/12/04 10:15:18;;;;;;;50.95;30.75;;;1.70;99.90;;;;;;5073083;28;20090;-77
2022/12/04 10:17:52;;;;;;;51.55;30.40;;;1.80;99.90;;;;;;5072136;28;20047;-77
2022/12/04 10:20:45;;;;;;;50.45;30.55;;;1.80;99.90;;;;;;5072115;28;20044;-77
2022/12/04 10:23:30;;;;;;;;;;;1.80;99.90;;;;;;5072396;28;20040;-77
2022/12/04 10:25:57;;;;;;;47.58;28.35;;;1.80;99.90;;;;;;5071959;28;19920;-77
2022/12/04 10:28:35;;;;;;;50.53;29.83;;;1.80;99.90;;;;;;5071940;28;20127;-77
2022/12/04 10:31:03;;;;;;;45.58;28.75;;;1.90;99.90;;;;;;5071980;28;20178;-77
2022/12/04 10:33:46;;;;;;;44.38;28.35;;;1.90;99.90;;;;;;5071794;28;20045;-77
2022/12/04 10:36:15;;;;;;;47.75;28.70;;;2.00;99.90;;;;;;5055066;28;20033;-77
2022/12/04 10:38:43;;;;;;;46.83;29.50;;;2.00;99.90;;;;;;5071819;28;20032;-76
2022/12/04 10:41:21;;;;;;;44.53;28.00;;;2.00;99.90;;;;;;5071948;28;20493;-76
2022/12/04 10:43:49;;;;;;;49.67;30.92;;;2.00;99.90;;;;;;5071718;28;20082;-76
2022/12/04 10:46:25;;;;;;;47.88;29.00;;;2.10;99.90;;;;;;5055132;28;20069;-76
2022/12/04 10:49:05;;;;;;;42.47;27.48;;;2.10;99.90;;;;;;5074194;28;20060;-76
2022/12/04 10:51:38;;;;;;;43.90;27.15;;;2.10;99.90;;;;;;5075950;28;20048;-76
2022/12/04 10:54:22;;;;;;;43.05;27.70;;;2.20;99.90;;;;;;5076201;28;20516;-76
2022/12/04 10:56:55;;;;;;;42.67;26.42;;;2.20;99.90;;;;;;5075853;28;20040;-76
2022/12/04 10:59:21;;;;;;;42.47;26.83;;;2.20;99.90;;;;;;5059116;28;20405;-76
2022/12/04 11:01:49;;;;;;;39.70;25.02;;;2.20;99.90;;;;;;5076186;28;20040;-76
2022/12/04 11:04:24;;;;;;;41.13;25.42;;;2.20;99.90;;;;;;5076060;28;20079;-76
2022/12/04 11:07:23;;;;;;;39.53;25.83;;;2.30;99.90;;;;;;5075928;28;20127;-76
2022/12/04 11:10:02;;;;;;;36.20;23.58;;;2.30;99.90;;;;;;5018347;28;20057;-76
2022/12/04 11:12:29;;;;;;;39.67;24.60;;;2.40;99.90;;;;;;5001202;28;20053;-76
2022/12/04 11:15:04;;;;;;;38.80;24.63;;;2.30;99.90;;;;;;5018021;28;20045;-76
2022/12/04 11:17:30;;;;;;;36.95;24.15;;;2.40;99.90;;;;;;5018295;28;20091;-76
2022/12/04 11:20:03;;;;;;;39.83;24.45;;;2.40;99.90;;;;;;5018137;28;20045;-76
2022/12/04 11:22:30;;;;;;;;;;;2.50;99.90;;;;;;5018442;28;20099;-76
2022/12/04 11:24:57;;;;;;;37.15;24.25;;;2.50;99.90;;;;;;5018100;28;19963;-76
2022/12/04 11:27:30;;;;;;;35.08;22.63;;;2.50;99.90;;;;;;5017406;28;20103;-76
2022/12/04 11:29:57;;;;;;;36.10;23.00;;;2.50;99.90;;;;;;5018143;28;20042;-75
2022/12/04 11:32:27;;;;;;;32.03;21.10;;;2.50;99.90;;;;;;5017868;28;20152;-76
2022/12/04 11:34:56;;;;;;;32.70;21.00;;;2.50;99.90;;;;;;5017929;28;20043;-76
2022/12/04 11:37:25;;;;;;;31.85;19.90;;;2.60;99.90;;;;;;5017660;28;20049;-76
2022/12/04 11:39:52;;;;;;;31.23;20.38;;;2.60;99.90;;;;;;5018086;28;20132;-76
2022/12/04 11:42:23;;;;;;;28.40;18.65;;;2.60;99.90;;;;;;5001304;28;20049;-77
2022/12/04 11:44:55;;;;;;;29.52;19.35;;;2.60;99.90;;;;;;5014341;28;20044;-77
2022/12/04 11:47:22;;;;;;;27.92;18.60;;;2.60;99.90;;;;;;5075091;28;20094;-76
2022/12/04 11:50:17;;;;;;;29.70;18.63;;;2.60;99.90;;;;;;5075056;28;20040;-76
2022/12/04 11:53:06;;;;;;;28.13;18.60;;;2.70;99.90;;;;;;5075928;28;20044;-76
2022/12/04 11:55:43;;;;;;;28.98;18.15;;;2.60;99.90;;;;;;5074702;28;20057;-76
2022/12/04 11:58:28;;;;;;;27.95;18.13;;;2.70;99.90;;;;;;5074685;28;20033;-76
2022/12/04 12:01:16;;;;;;;28.52;18.95;;;2.70;99.90;;;;;;5073986;28;20037;-75
2022/12/04 12:04:18;;;;;;;29.55;19.30;;;2.70;99.90;;;;;;5074697;28;20094;-76
2022/12/04 12:07:11;;;;;;;28.88;18.90;;;2.70;99.90;;;;;;5074629;28;20047;-76
2022/12/04 12:10:03;;;;;;;28.33;18.88;;;2.70;99.90;;;;;;5074783;28;20048;-76
2022/12/04 12:12:52;;;;;;;30.70;20.73;;;2.60;99.90;;;;;;5057952;28;20079;-75
2022/12/04 12:15:36;;;;;;;30.27;18.52;;;2.60;99.90;;;;;;5074201;28;20444;-75
2022/12/04 12:18:10;;;;;;;28.98;17.92;;;2.70;99.90;;;;;;5074313;28;20040;-75
2022/12/04 12:20:39;;;;;;;29.05;19.55;;;2.70;99.90;;;;;;5074264;28;20040;-75
2022/12/04 12:23:48;;;;;;;29.50;18.65;;;2.70;99.90;;;;;;5057647;28;20041;-75
2022/12/04 12:26:16;;;;;;;30.30;18.80;;;2.70;99.90;;;;;;5074158;28;20055;-75
2022/12/04 12:29:05;;;;;;;27.80;18.95;;;2.70;99.90;;;;;;5074092;28;20505;-75
2022/12/04 12:31:45;;;;;;;28.58;18.45;;;2.70;99.90;;;;;;5074332;28;20045;-75
2022/12/04 12:34:14;;;;;;;26.70;17.75;;;2.70;99.90;;;;;;5073985;28;20153;-75
2022/12/04 12:36:44;;;;;;;26.92;18.23;;;2.80;99.90;;;;;;5057127;28;20086;-75
2022/12/04 12:39:18;;;;;;;28.63;18.80;;;2.70;99.90;;;;;;5073919;28;20032;-75
2022/12/04 12:41:51;;;;;;;;;;;2.70;99.90;;;;;;5057595;28;20033;-75
2022/12/04 12:44:43;;;;;;;26.85;17.55;;;2.70;99.90;;;;;;5057088;28;19917;-75
2022/12/04 12:47:16;;;;;;;29.35;18.50;;;2.70;99.90;;;;;;5073323;28;20062;-75
2022/12/04 12:50:12;;;;;;;25.55;17.83;;;2.80;99.90;;;;;;5073781;28;20476;-75
2022/12/04 12:52:54;;;;;;;25.60;17.60;;;2.80;99.90;;;;;;5073634;28;20051;-75
2022/12/04 12:55:41;;;;;;;28.60;18.50;;;2.80;99.90;;;;;;5073419;28;20497;-76
2022/12/04 12:58:31;;;;;;;26.67;17.85;;;2.80;99.90;;;;;;5073501;28;20036;-75
2022/12/04 13:01:27;;;;;;;26.85;18.00;;;2.90;99.90;;;;;;5073503;28;20489;-75
2022/12/04 13:04:11;;;;;;;25.38;16.20;;;2.90;99.90;;;;;;5068693;28;20060;-75
2022/12/04 13:06:41;;;;;;;27.10;17.65;;;2.90;99.90;;;;;;5074686;28;20036;-75
2022/12/04 13:09:26;;;;;;;33.20;22.95;;;2.90;99.90;;;;;;5073676;28;20124;-75
2022/12/04 13:11:59;;;;;;;30.73;20.15;;;2.90;99.90;;;;;;5055638;28;20413;-75
2022/12/04 13:14:24;;;;;;;31.65;21.08;;;2.90;99.90;;;;;;5056885;28;20045;-75
2022/12/04 13:16:56;;;;;;;27.35;17.58;;;2.90;99.90;;;;;;5073053;28;20048;-75